Time;durP1;ratioP1;P1;durP2;ratioP2;P2;SDS_P1;SDS_P2;PMS_P1;PMS_P2;Temp;Humidity;BMP_temperature;BMP_pressure;BME280_temperature;BME280_humidity;BME280_pressure;Samples;Min_cycle;Max_cycle;Signal;HPM_P1;HPM_P2
2021/10/08 00:01:58;;;;;;;5.18;4.38;;;13.00;91.40;;;;;;5012557;28;20042;-67
2021/10/08 00:04:24;;;;;;;4.63;4.00;;;13.00;91.30;;;;;;5013672;28;20087;-68
2021/10/08 00:06:50;;;;;;;4.65;3.80;;;13.00;91.10;;;;;;5011221;28;20037;-67
2021/10/08 00:09:16;;;;;;;5.68;4.30;;;13.10;91.00;;;;;;5014561;28;20085;-67
2021/10/08 00:11:41;;;;;;;4.88;3.75;;;13.10;91.00;;;;;;5002715;28;20069;-67
2021/10/08 00:14:07;;;;;;;4.65;3.97;;;13.10;91.10;;;;;;5011334;28;20068;-67
2021/10/08 00:16:33;;;;;;;5.43;3.40;;;13.20;91.20;;;;;;5012062;28;20397;-67
2021/10/08 00:18:59;;;;;;;6.80;3.63;;;13.20;91.10;;;;;;5012787;28;20048;-67
2021/10/08 00:21:25;;;;;;;8.40;4.30;;;13.20;91.10;;;;;;5014123;28;20041;-67
2021/10/08 00:23:50;;;;;;;4.97;3.88;;;13.30;91.30;;;;;;5010658;28;20042;-67
2021/10/08 00:26:17;;;;;;;4.78;3.65;;;13.30;91.20;;;;;;5010200;28;20080;-67
2021/10/08 00:28:43;;;;;;;5.47;3.63;;;13.30;91.10;;;;;;5009950;28;20061;-67
2021/10/08 00:31:08;;;;;;;7.10;3.80;;;13.30;91.00;;;;;;5011746;28;20454;-67
2021/10/08 00:33:34;;;;;;;6.25;3.55;;;13.40;91.10;;;;;;5012220;28;20679;-67
2021/10/08 00:36:00;;;;;;;4.28;3.50;;;13.30;90.80;;;;;;5006654;28;20053;-68
2021/10/08 00:38:26;;;;;;;6.60;4.00;;;13.40;90.60;;;;;;5011999;28;20029;-68
2021/10/08 00:40:52;;;;;;;4.30;3.45;;;13.40;90.40;;;;;;5009087;28;20026;-67
2021/10/08 00:43:19;;;;;;;5.60;3.60;;;13.40;90.30;;;;;;5002918;28;20041;-67
2021/10/08 00:45:46;;;;;;;7.13;3.80;;;13.30;90.40;;;;;;5011577;28;20180;-67
2021/10/08 00:48:13;;;;;;;5.13;3.30;;;13.30;90.40;;;;;;5012671;28;20148;-67
2021/10/08 00:50:45;;;;;;;4.60;3.85;;;13.30;90.40;;;;;;5012554;28;20038;-68
2021/10/08 00:53:11;;;;;;;4.00;3.38;;;13.30;90.50;;;;;;5001246;28;20029;-67
2021/10/08 00:55:42;;;;;;;3.70;3.20;;;13.30;90.60;;;;;;5010624;28;20813;-67
2021/10/08 00:58:09;;;;;;;5.78;3.40;;;13.30;90.70;;;;;;4984044;28;20131;-68
2021/10/08 01:00:38;;;;;;;4.95;3.33;;;13.30;91.00;;;;;;4992408;28;20030;-67
2021/10/08 01:03:03;;;;;;;5.32;3.72;;;13.20;91.10;;;;;;5011888;28;20098;-68
2021/10/08 01:05:29;;;;;;;5.03;3.38;;;13.20;91.10;;;;;;5012815;28;20497;-67
2021/10/08 01:07:55;;;;;;;4.93;3.58;;;13.30;91.00;;;;;;5000404;28;20042;-67
2021/10/08 01:10:23;;;;;;;4.32;3.60;;;13.30;91.20;;;;;;5000358;28;20037;-67
2021/10/08 01:12:49;;;;;;;4.30;3.83;;;13.30;91.30;;;;;;5013509;28;20030;-67
2021/10/08 01:15:15;;;;;;;5.53;3.83;;;13.30;91.50;;;;;;5001610;28;20022;-67
2021/10/08 01:17:51;;;;;;;7.25;3.50;;;13.20;91.50;;;;;;4999501;28;20813;-67
2021/10/08 01:20:16;;;;;;;5.07;3.88;;;13.20;91.60;;;;;;4983333;28;20079;-67
2021/10/08 01:22:50;;;;;;;4.60;3.33;;;13.10;91.70;;;;;;5010423;28;20079;-67
2021/10/08 01:25:18;;;;;;;8.10;4.53;;;13.10;91.70;;;;;;4999275;28;20121;-68
2021/10/08 01:27:44;;;;;;;5.13;3.90;;;13.10;91.80;;;;;;4999638;28;20038;-67
2021/10/08 01:30:18;;;;;;;4.68;4.18;;;13.00;92.10;;;;;;5012266;28;20040;-67
2021/10/08 01:32:48;;;;;;;7.72;4.68;;;13.00;91.90;;;;;;4991289;28;20069;-67
2021/10/08 01:35:17;;;;;;;9.55;5.35;;;12.90;91.90;;;;;;4999448;28;20065;-67
2021/10/08 01:37:45;;;;;;;6.60;5.22;;;12.90;92.00;;;;;;4982446;28;20700;-67
2021/10/08 01:40:12;;;;;;;7.03;5.28;;;12.80;92.10;;;;;;5010471;28;20041;-67
2021/10/08 01:42:42;;;;;;;7.57;5.55;;;12.80;92.30;;;;;;5004638;28;20555;-67
2021/10/08 01:45:10;;;;;;;6.50;5.82;;;12.70;92.40;;;;;;5001331;28;20044;-67
2021/10/08 01:47:35;;;;;;;7.90;6.05;;;12.70;92.40;;;;;;5005560;28;20042;-67
2021/10/08 01:50:04;;;;;;;7.85;5.80;;;12.60;92.50;;;;;;5001472;28;20508;-67
2021/10/08 01:52:35;;;;;;;7.93;5.13;;;12.60;92.60;;;;;;4991385;28;20073;-67
2021/10/08 01:55:01;;;;;;;8.38;5.88;;;12.60;92.60;;;;;;5008913;28;20446;-67
2021/10/08 01:57:31;;;;;;;7.75;5.78;;;12.60;92.70;;;;;;5006608;28;20034;-67
2021/10/08 01:59:57;;;;;;;6.68;6.00;;;12.50;92.70;;;;;;4999447;28;20065;-67
2021/10/08 02:02:23;;;;;;;7.68;5.93;;;12.50;92.70;;;;;;4997999;28;20065;-67
2021/10/08 02:04:49;;;;;;;9.20;6.38;;;12.50;92.90;;;;;;4990811;28;20501;-67
2021/10/08 02:07:15;;;;;;;8.02;7.00;;;12.40;92.90;;;;;;5000171;28;20056;-67
2021/10/08 02:09:43;;;;;;;9.63;7.03;;;12.40;93.00;;;;;;5001275;28;20480;-67
2021/10/08 02:12:09;;;;;;;6.57;5.72;;;12.30;93.10;;;;;;5000384;28;20029;-67
2021/10/08 02:14:37;;;;;;;7.82;5.78;;;12.40;93.10;;;;;;5007105;28;20604;-67
2021/10/08 02:17:03;;;;;;;7.22;5.72;;;12.40;93.10;;;;;;4997401;28;20037;-67
2021/10/08 02:19:29;;;;;;;6.07;5.47;;;12.30;93.00;;;;;;5009888;28;20037;-67
2021/10/08 02:22:02;;;;;;;6.70;5.85;;;12.30;93.00;;;;;;5000681;28;20259;-68
2021/10/08 02:24:31;;;;;;;9.00;6.15;;;12.30;93.00;;;;;;4996741;28;20077;-67
2021/10/08 02:26:57;;;;;;;7.53;6.30;;;12.30;93.00;;;;;;4999814;28;20047;-67
2021/10/08 02:29:28;;;;;;;7.78;6.00;;;12.20;92.80;;;;;;4999568;28;20148;-67
2021/10/08 02:31:56;;;;;;;8.45;6.28;;;12.20;92.80;;;;;;5000411;28;20080;-67
2021/10/08 02:34:22;;;;;;;9.55;5.97;;;12.10;92.80;;;;;;4990533;28;20026;-68
2021/10/08 02:36:48;;;;;;;10.52;7.05;;;12.20;92.90;;;;;;4994096;28;20053;-67
2021/10/08 02:39:14;;;;;;;7.32;5.85;;;12.10;92.90;;;;;;4999182;28;20192;-67
2021/10/08 02:41:41;;;;;;;9.93;6.43;;;12.10;92.90;;;;;;5000058;28;20036;-67
2021/10/08 02:44:06;;;;;;;7.40;6.20;;;12.10;92.70;;;;;;5001060;28;20030;-67
2021/10/08 02:46:39;;;;;;;8.05;5.57;;;12.00;92.50;;;;;;4983409;28;20042;-67
2021/10/08 02:49:04;;;;;;;7.20;5.78;;;12.00;92.50;;;;;;4997037;28;20149;-67
2021/10/08 02:51:33;;;;;;;7.47;5.90;;;11.90;92.50;;;;;;5010252;28;20026;-68
2021/10/08 02:54:00;;;;;;;9.48;6.05;;;11.90;92.40;;;;;;4999372;28;20030;-67
2021/10/08 02:56:27;;;;;;;8.30;5.80;;;11.80;92.40;;;;;;4995791;28;20061;-67
2021/10/08 02:58:53;;;;;;;10.20;5.88;;;11.80;92.40;;;;;;5009148;28;20022;-68
2021/10/08 03:01:18;;;;;;;8.68;6.28;;;11.70;92.50;;;;;;4993389;28;20040;-67
2021/10/08 03:03:44;;;;;;;6.80;5.68;;;11.70;92.60;;;;;;4999139;28;20040;-67
2021/10/08 03:06:10;;;;;;;7.40;5.25;;;11.70;92.70;;;;;;5001068;28;20029;-67
2021/10/08 03:08:35;;;;;;;7.63;5.88;;;11.70;92.60;;;;;;5007284;28;20026;-67
2021/10/08 03:11:01;;;;;;;6.93;5.97;;;11.60;92.50;;;;;;5002995;28;20025;-67
2021/10/08 03:13:27;;;;;;;7.45;5.90;;;11.60;92.50;;;;;;4999129;28;20087;-67
2021/10/08 03:15:53;;;;;;;10.40;6.15;;;11.50;92.60;;;;;;5002351;28;20034;-67
2021/10/08 03:18:19;;;;;;;9.38;6.43;;;11.50;92.70;;;;;;5000706;28;20036;-67
2021/10/08 03:20:45;;;;;;;7.78;6.13;;;11.50;92.80;;;;;;5010436;28;20559;-67
2021/10/08 03:23:11;;;;;;;10.27;6.70;;;11.50;92.80;;;;;;5009343;28;20041;-67
2021/10/08 03:25:37;;;;;;;10.65;7.13;;;11.50;92.90;;;;;;5001148;28;20033;-67
2021/10/08 03:28:03;;;;;;;8.45;6.63;;;11.50;92.90;;;;;;5001540;28;20037;-67
2021/10/08 03:30:29;;;;;;;9.80;7.07;;;11.50;93.00;;;;;;5003976;28;20033;-67
2021/10/08 03:32:55;;;;;;;9.20;6.93;;;11.50;92.90;;;;;;5006837;28;20022;-67
2021/10/08 03:35:21;;;;;;;9.48;6.53;;;11.50;92.90;;;;;;5004452;28;20033;-67
2021/10/08 03:37:59;;;;;;;12.48;6.95;;;11.40;92.90;;;;;;5002467;28;20121;-67
2021/10/08 03:40:28;;;;;;;8.10;5.20;;;11.40;92.90;;;;;;4994994;28;20096;-68
2021/10/08 03:42:56;;;;;;;8.70;5.32;;;11.40;92.60;;;;;;5013825;28;20044;-67
2021/10/08 03:45:29;;;;;;;6.97;5.18;;;11.40;92.50;;;;;;5013951;28;20033;-67
2021/10/08 03:50:21;;;;;;;6.53;4.88;;;11.30;92.20;;;;;;5011941;28;20095;-67
2021/10/08 03:52:47;;;;;;;5.85;5.25;;;11.30;92.10;;;;;;5010753;28;20088;-67
2021/10/08 03:55:14;;;;;;;6.25;5.05;;;11.20;92.10;;;;;;5012341;28;20843;-67
2021/10/08 03:57:39;;;;;;;9.02;6.43;;;11.20;92.10;;;;;;5012225;28;20045;-67
2021/10/08 04:00:07;;;;;;;9.20;5.90;;;11.20;92.30;;;;;;5002969;28;20033;-67
2021/10/08 04:02:41;;;;;;;8.20;5.82;;;11.20;92.40;;;;;;5012440;28;20041;-67
2021/10/08 04:05:09;;;;;;;7.47;6.18;;;11.20;92.50;;;;;;4990585;28;20412;-67
2021/10/08 04:07:36;;;;;;;8.32;5.93;;;11.20;92.60;;;;;;5000466;28;20034;-67
2021/10/08 04:10:05;;;;;;;8.10;6.38;;;11.20;92.60;;;;;;5000813;28;20034;-67
2021/10/08 04:12:31;;;;;;;8.48;6.57;;;11.20;92.70;;;;;;5009993;28;20022;-67
2021/10/08 04:14:59;;;;;;;8.93;7.28;;;11.20;92.80;;;;;;4985715;28;20112;-67
2021/10/08 04:17:25;;;;;;;7.93;6.57;;;11.20;93.00;;;;;;5013046;28;20458;-67
2021/10/08 04:19:51;;;;;;;7.47;5.88;;;11.20;93.00;;;;;;5006915;28;20115;-67
2021/10/08 04:22:16;;;;;;;7.30;5.68;;;11.20;92.90;;;;;;5004327;28;20033;-67
2021/10/08 04:24:42;;;;;;;7.45;5.63;;;11.20;92.70;;;;;;5013650;28;20039;-67
2021/10/08 04:27:09;;;;;;;8.23;5.90;;;11.10;92.50;;;;;;5000209;28;20030;-67
2021/10/08 04:29:35;;;;;;;7.82;6.10;;;11.10;92.50;;;;;;5003085;28;20034;-67
2021/10/08 04:32:01;;;;;;;8.48;6.10;;;11.10;92.50;;;;;;5017047;28;20038;-67
2021/10/08 04:34:27;;;;;;;7.55;5.65;;;11.10;92.60;;;;;;5033718;28;20028;-67
2021/10/08 04:36:52;;;;;;;6.78;5.72;;;11.10;92.30;;;;;;5002454;28;20069;-66
2021/10/08 04:39:19;;;;;;;9.27;5.70;;;11.10;92.20;;;;;;5012950;28;20059;-67
2021/10/08 04:41:45;;;;;;;8.00;6.00;;;11.00;92.00;;;;;;4998984;28;20033;-67
2021/10/08 04:44:14;;;;;;;7.88;6.10;;;11.00;91.90;;;;;;5001080;28;20033;-67
2021/10/08 04:46:41;;;;;;;11.18;6.30;;;11.00;91.70;;;;;;5005771;28;20086;-67
2021/10/08 04:49:07;;;;;;;9.60;6.18;;;11.00;91.90;;;;;;5027766;28;20030;-67
2021/10/08 04:51:33;;;;;;;11.25;7.18;;;11.00;92.20;;;;;;5009183;28;20578;-67
2021/10/08 04:54:00;;;;;;;9.10;7.30;;;11.10;92.40;;;;;;5008755;28;20037;-67
2021/10/08 04:56:26;;;;;;;11.02;7.38;;;11.10;92.60;;;;;;5016259;28;20666;-67
2021/10/08 04:58:51;;;;;;;12.05;7.45;;;11.10;92.80;;;;;;4999829;28;20025;-67
2021/10/08 05:01:17;;;;;;;10.25;7.45;;;11.20;92.90;;;;;;5012460;28;20166;-67
2021/10/08 05:03:43;;;;;;;7.88;5.75;;;11.30;92.90;;;;;;4999732;28;20033;-67
2021/10/08 05:06:09;;;;;;;8.18;6.32;;;11.30;92.50;;;;;;5003183;28;20065;-67
2021/10/08 05:08:42;;;;;;;7.35;5.60;;;11.40;92.40;;;;;;5002513;28;20040;-67
2021/10/08 05:11:09;;;;;;;6.90;5.70;;;11.40;92.40;;;;;;5003921;28;20025;-67
2021/10/08 05:13:35;;;;;;;10.15;7.03;;;11.40;92.30;;;;;;5006791;28;20040;-67
2021/10/08 05:16:02;;;;;;;9.85;6.90;;;11.40;92.40;;;;;;5007777;28;20033;-67
2021/10/08 05:18:27;;;;;;;11.50;7.85;;;11.40;92.60;;;;;;5016435;28;20025;-67
2021/10/08 05:20:54;;;;;;;8.85;7.13;;;11.40;92.90;;;;;;4995932;28;20743;-67
2021/10/08 05:23:21;;;;;;;12.50;7.88;;;11.40;93.10;;;;;;5004021;28;20049;-67
2021/10/08 05:25:46;;;;;;;11.55;7.72;;;11.50;93.10;;;;;;5007181;28;20397;-67
2021/10/08 05:28:13;;;;;;;14.98;9.93;;;11.40;93.00;;;;;;5006884;28;20489;-67
2021/10/08 05:30:39;;;;;;;13.68;9.00;;;11.40;93.10;;;;;;5008759;28;20064;-67
2021/10/08 05:33:05;;;;;;;13.00;9.23;;;11.40;93.10;;;;;;5021754;28;20111;-67
2021/10/08 05:35:31;;;;;;;14.35;8.70;;;11.40;93.00;;;;;;5005523;28;20466;-67
2021/10/08 05:37:57;;;;;;;13.88;9.50;;;11.40;93.10;;;;;;4992841;28;20096;-66
2021/10/08 05:40:24;;;;;;;13.35;8.85;;;11.40;93.10;;;;;;5001947;28;20061;-67
2021/10/08 05:42:49;;;;;;;14.57;9.27;;;11.40;93.20;;;;;;5008050;28;20088;-67
2021/10/08 05:45:17;;;;;;;11.63;8.88;;;11.40;93.10;;;;;;5012399;28;20033;-67
2021/10/08 05:47:42;;;;;;;13.48;8.60;;;11.40;92.90;;;;;;5010167;28;20371;-67
2021/10/08 05:50:08;;;;;;;14.13;9.52;;;11.40;92.80;;;;;;5006403;28;20116;-66
2021/10/08 05:52:34;;;;;;;18.10;10.68;;;11.40;92.90;;;;;;5015361;28;20061;-66
2021/10/08 05:55:01;;;;;;;15.70;10.85;;;11.40;93.00;;;;;;5000690;28;20030;-66
2021/10/08 05:57:27;;;;;;;17.58;11.05;;;11.40;93.10;;;;;;5000804;28;20044;-67
2021/10/08 05:59:53;;;;;;;18.35;11.63;;;11.40;93.20;;;;;;5001778;28;20034;-67
2021/10/08 06:02:19;;;;;;;15.55;10.88;;;11.50;93.30;;;;;;5021259;28;20034;-67
2021/10/08 06:04:45;;;;;;;20.55;12.80;;;11.50;93.40;;;;;;5006876;28;20037;-67
2021/10/08 06:07:11;;;;;;;20.77;13.32;;;11.50;93.40;;;;;;5010690;28;20044;-66
2021/10/08 06:09:37;;;;;;;18.63;11.75;;;11.60;93.40;;;;;;5002992;28;20056;-63
2021/10/08 06:12:07;;;;;;;17.85;12.50;;;11.60;93.40;;;;;;5000152;28;20882;-66
2021/10/08 06:14:37;;;;;;;20.45;13.57;;;11.60;93.50;;;;;;5003728;28;20185;-66
2021/10/08 06:17:03;;;;;;;23.77;14.85;;;11.70;93.60;;;;;;5003553;28;20026;-66
2021/10/08 06:19:30;;;;;;;21.70;14.32;;;11.70;93.60;;;;;;4992354;28;20037;-67
2021/10/08 06:21:56;;;;;;;30.95;17.50;;;11.70;93.60;;;;;;4997897;28;20033;-66
2021/10/08 06:24:22;;;;;;;29.02;18.10;;;11.80;93.60;;;;;;5006081;28;20034;-66
2021/10/08 06:26:48;;;;;;;29.90;17.45;;;11.90;93.60;;;;;;5008875;28;20564;-66
2021/10/08 06:29:14;;;;;;;28.75;17.75;;;11.90;93.60;;;;;;4990532;28;20034;-66
2021/10/08 06:31:40;;;;;;;25.60;17.17;;;12.00;93.60;;;;;;4987130;28;20054;-66
2021/10/08 06:34:06;;;;;;;26.83;16.98;;;12.10;93.50;;;;;;5007398;28;20687;-67
2021/10/08 06:36:32;;;;;;;25.42;16.13;;;12.20;93.50;;;;;;4993226;28;20029;-66
2021/10/08 06:38:57;;;;;;;25.48;15.90;;;12.20;93.50;;;;;;5015383;28;20060;-66
2021/10/08 06:41:24;;;;;;;29.95;17.27;;;12.30;93.40;;;;;;5022886;28;20121;-67
2021/10/08 06:43:56;;;;;;;27.77;16.75;;;12.30;93.40;;;;;;5003530;28;20121;-67
2021/10/08 06:46:25;;;;;;;30.83;18.83;;;12.40;93.40;;;;;;5006095;28;20032;-66
2021/10/08 06:48:52;;;;;;;28.67;17.48;;;12.50;93.30;;;;;;5005632;28;20033;-66
2021/10/08 06:51:19;;;;;;;37.67;20.92;;;12.70;93.40;;;;;;4996488;28;20140;-66
2021/10/08 06:53:45;;;;;;;49.00;26.13;;;12.80;93.40;;;;;;5018905;28;20113;-66
2021/10/08 06:56:12;;;;;;;44.03;25.05;;;12.90;93.20;;;;;;5004884;28;20056;-66
2021/10/08 06:58:57;;;;;;;42.83;26.20;;;13.00;93.20;;;;;;5003807;28;20040;-66
2021/10/08 07:01:23;;;;;;;50.13;27.67;;;13.10;93.00;;;;;;5016667;28;20647;-66
2021/10/08 07:03:49;;;;;;;47.15;26.23;;;13.10;93.00;;;;;;4995606;28;20400;-64
2021/10/08 07:06:16;;;;;;;46.95;26.27;;;13.20;93.00;;;;;;5010693;28;20030;-66
2021/10/08 07:08:42;;;;;;;42.95;25.83;;;13.30;92.90;;;;;;5009075;28;20032;-67
2021/10/08 07:11:09;;;;;;;45.60;27.83;;;13.40;92.80;;;;;;5005626;28;20033;-67
2021/10/08 07:13:35;;;;;;;46.83;27.45;;;13.50;92.60;;;;;;5013313;28;20037;-66
2021/10/08 07:16:01;;;;;;;43.20;27.15;;;13.60;92.40;;;;;;5025017;28;20033;-67
2021/10/08 07:18:34;;;;;;;41.50;26.23;;;13.70;92.20;;;;;;4998038;28;20037;-67
2021/10/08 07:21:01;;;;;;;41.55;26.02;;;13.80;92.10;;;;;;5013910;28;20094;-66
2021/10/08 07:23:27;;;;;;;44.47;26.90;;;13.90;91.90;;;;;;5023299;28;20036;-66
2021/10/08 07:25:53;;;;;;;43.10;26.75;;;14.00;91.60;;;;;;5027645;28;20045;-67
2021/10/08 07:28:19;;;;;;;51.85;31.88;;;14.10;91.70;;;;;;5020442;28;20041;-66
2021/10/08 07:30:46;;;;;;;45.85;27.00;;;14.30;91.00;;;;;;5022274;28;20155;-67
2021/10/08 07:33:12;;;;;;;49.65;30.42;;;14.40;91.00;;;;;;5024735;28;20044;-67
2021/10/08 07:35:37;;;;;;;43.28;28.10;;;14.40;91.00;;;;;;5017909;28;20033;-67
2021/10/08 07:38:03;;;;;;;43.72;28.10;;;14.60;90.80;;;;;;4998721;28;20037;-66
2021/10/08 07:40:29;;;;;;;51.15;32.28;;;14.70;90.80;;;;;;5022049;28;20056;-67
2021/10/08 07:42:55;;;;;;;45.28;28.77;;;14.80;90.00;;;;;;5031695;28;20552;-67
2021/10/08 07:45:20;;;;;;;45.63;29.52;;;14.80;89.40;;;;;;5021413;28;20060;-67
2021/10/08 07:47:47;;;;;;;50.38;29.17;;;15.00;89.00;;;;;;5020284;28;20043;-67
2021/10/08 07:50:14;;;;;;;43.80;28.73;;;15.10;88.80;;;;;;5019111;28;20081;-66
2021/10/08 07:52:40;;;;;;;44.65;28.08;;;15.10;87.90;;;;;;5009848;28;20033;-66
2021/10/08 07:55:08;;;;;;;46.70;28.15;;;15.20;87.70;;;;;;5015645;28;20622;-66
2021/10/08 07:57:35;;;;;;;40.58;26.95;;;15.10;87.40;;;;;;4995834;28;20042;-66
2021/10/08 08:00:00;;;;;;;46.15;27.95;;;15.10;86.50;;;;;;5018789;28;20532;-66
2021/10/08 08:02:29;;;;;;;46.97;28.55;;;15.10;86.40;;;;;;5001126;28;20079;-66
2021/10/08 08:04:56;;;;;;;43.00;26.92;;;15.10;85.60;;;;;;5015775;28;20040;-66
2021/10/08 08:07:23;;;;;;;43.92;27.60;;;15.00;85.80;;;;;;5023006;28;20033;-67
2021/10/08 08:09:49;;;;;;;45.05;27.10;;;15.10;86.90;;;;;;5010547;28;20041;-66
2021/10/08 08:12:14;;;;;;;42.38;27.13;;;15.20;86.80;;;;;;5024465;28;20071;-66
2021/10/08 08:14:40;;;;;;;40.35;26.20;;;15.40;86.90;;;;;;5015734;28;20094;-66
2021/10/08 08:17:06;;;;;;;41.70;25.33;;;15.70;86.30;;;;;;5011694;28;20041;-67
2021/10/08 08:19:31;;;;;;;37.90;25.17;;;15.80;84.40;;;;;;5024600;28;20038;-66
2021/10/08 08:21:57;;;;;;;36.30;25.20;;;16.00;84.30;;;;;;5011211;28;20077;-69
2021/10/08 08:24:23;;;;;;;42.22;25.98;;;16.20;83.40;;;;;;5019929;28;20091;-67
2021/10/08 08:26:49;;;;;;;33.58;23.42;;;16.20;82.30;;;;;;5011676;28;20037;-66
2021/10/08 08:29:15;;;;;;;34.70;24.42;;;16.20;82.90;;;;;;5014129;28;20712;-67
2021/10/08 08:31:41;;;;;;;41.78;24.98;;;16.30;83.20;;;;;;5012436;28;20041;-67
2021/10/08 08:34:07;;;;;;;42.15;24.80;;;16.30;81.50;;;;;;5021443;28;20040;-66
2021/10/08 08:36:33;;;;;;;34.95;23.65;;;16.20;80.30;;;;;;5017289;28;20029;-66
2021/10/08 08:39:03;;;;;;;36.00;23.42;;;16.10;81.10;;;;;;5016952;28;20087;-66
2021/10/08 08:41:30;;;;;;;35.47;22.85;;;16.10;80.80;;;;;;5002366;28;20071;-67
2021/10/08 08:43:55;;;;;;;32.47;21.98;;;16.20;81.70;;;;;;5014934;28;20026;-66
2021/10/08 08:46:21;;;;;;;38.65;23.77;;;16.10;80.30;;;;;;5018799;28;20500;-66
2021/10/08 08:48:47;;;;;;;33.08;22.15;;;16.10;79.50;;;;;;5017388;28;20031;-67
2021/10/08 08:51:13;;;;;;;31.48;20.63;;;16.00;80.60;;;;;;5024915;28;20452;-67
2021/10/08 08:53:38;;;;;;;37.15;22.45;;;16.00;81.40;;;;;;5013668;28;20497;-67
2021/10/08 08:56:04;;;;;;;35.05;21.70;;;16.00;80.20;;;;;;5018684;28;20854;-67
2021/10/08 08:58:30;;;;;;;34.15;21.25;;;15.90;80.00;;;;;;5019525;28;20481;-67
2021/10/08 09:00:57;;;;;;;32.13;20.17;;;15.80;80.20;;;;;;5017348;28;20056;-66
2021/10/08 09:03:23;;;;;;;32.05;20.60;;;15.80;79.90;;;;;;5020869;28;20136;-66
2021/10/08 09:05:49;;;;;;;34.85;20.55;;;15.80;79.70;;;;;;5014567;28;20124;-66
2021/10/08 09:08:15;;;;;;;30.13;20.10;;;15.80;79.10;;;;;;5023593;28;20045;-66
2021/10/08 09:10:45;;;;;;;34.20;20.42;;;15.90;78.10;;;;;;5030821;28;20123;-66
2021/10/08 09:13:11;;;;;;;31.17;19.70;;;15.90;79.00;;;;;;5022646;28;20041;-67
2021/10/08 09:15:51;;;;;;;35.38;18.95;;;16.00;79.10;;;;;;5015640;28;20805;-66
2021/10/08 09:18:23;;;;;;;27.40;18.08;;;16.10;79.00;;;;;;5008112;28;20120;-66
2021/10/08 09:21:04;;;;;;;30.73;18.50;;;16.10;78.10;;;;;;5018347;28;20037;-66
2021/10/08 09:23:36;;;;;;;33.30;18.65;;;16.20;78.90;;;;;;5013043;28;20060;-67
2021/10/08 09:26:04;;;;;;;27.38;17.35;;;16.30;76.80;;;;;;5020364;28;20051;-67
2021/10/08 09:28:30;;;;;;;29.95;18.63;;;16.40;77.00;;;;;;5023181;28;20079;-67
2021/10/08 09:30:56;;;;;;;27.02;17.17;;;16.40;77.20;;;;;;5014252;28;20769;-66
2021/10/08 09:33:23;;;;;;;30.55;19.13;;;16.60;76.80;;;;;;4988171;28;20134;-66
2021/10/08 09:35:53;;;;;;;27.88;17.60;;;16.80;74.40;;;;;;5010288;28;20449;-66
2021/10/08 09:38:20;;;;;;;27.00;16.90;;;17.30;73.10;;;;;;5010122;28;20029;-66
2021/10/08 09:40:55;;;;;;;30.33;16.38;;;17.90;68.80;;;;;;5000551;28;20033;-66
2021/10/08 09:43:28;;;;;;;23.40;15.18;;;18.50;66.30;;;;;;5025000;28;20137;-66
2021/10/08 09:45:56;;;;;;;26.27;16.20;;;18.80;66.80;;;;;;5016626;28;20757;-66
2021/10/08 09:48:34;;;;;;;23.05;15.68;;;19.20;64.80;;;;;;4992869;28;20175;-66
2021/10/08 09:51:06;;;;;;;21.33;15.15;;;19.40;63.60;;;;;;5010056;28;20041;-66
2021/10/08 09:53:35;;;;;;;21.27;13.93;;;19.40;64.10;;;;;;4994581;28;20033;-67
2021/10/08 09:56:01;;;;;;;29.30;15.32;;;19.40;66.10;;;;;;5009366;28;20532;-67
2021/10/08 09:58:27;;;;;;;23.48;15.02;;;19.30;62.10;;;;;;5001701;28;20053;-65
2021/10/08 10:01:07;;;;;;;24.00;14.10;;;19.10;63.30;;;;;;5013302;28;20541;-66
2021/10/08 10:03:33;;;;;;;20.77;13.48;;;18.90;62.10;;;;;;5010171;28;20447;-66
2021/10/08 10:06:00;;;;;;;19.70;13.07;;;18.90;62.60;;;;;;5002769;28;20090;-66
2021/10/08 10:08:26;;;;;;;19.73;12.63;;;18.80;65.50;;;;;;5014636;28;20037;-66
2021/10/08 10:10:52;;;;;;;19.30;12.50;;;18.70;63.40;;;;;;5018113;28;20095;-67
2021/10/08 10:13:18;;;;;;;19.77;12.32;;;18.50;62.70;;;;;;5020246;28;20035;-67
2021/10/08 10:15:45;;;;;;;27.98;12.05;;;18.20;62.50;;;;;;4982376;28;20050;-65
2021/10/08 10:18:16;;;;;;;19.08;11.13;;;18.10;63.70;;;;;;5021574;28;20108;-66
2021/10/08 10:20:52;;;;;;;18.20;10.95;;;18.00;62.80;;;;;;5010013;28;20042;-66
2021/10/08 10:23:20;;;;;;;23.83;11.68;;;17.80;64.10;;;;;;5022011;28;20029;-67
2021/10/08 10:25:47;;;;;;;16.30;10.55;;;17.70;62.40;;;;;;5001775;28;20033;-67
2021/10/08 10:28:14;;;;;;;16.90;11.27;;;17.60;62.80;;;;;;5024261;28;20037;-66
2021/10/08 10:30:41;;;;;;;21.52;11.30;;;17.50;63.70;;;;;;5009046;28;20049;-67
2021/10/08 10:33:09;;;;;;;15.90;10.05;;;17.50;64.60;;;;;;5015887;28;20025;-67
2021/10/08 10:35:46;;;;;;;21.08;10.32;;;17.50;65.10;;;;;;4998847;28;20453;-65
2021/10/08 10:38:31;;;;;;;17.02;9.55;;;17.60;63.70;;;;;;5019683;28;20044;-65
2021/10/08 10:41:09;;;;;;;16.00;9.05;;;17.60;61.10;;;;;;5019308;28;20030;-66
2021/10/08 10:43:45;;;;;;;17.58;9.55;;;17.60;62.90;;;;;;4985861;28;20044;-67
2021/10/08 10:46:50;;;;;;;19.05;9.00;;;17.50;62.70;;;;;;5021996;28;20088;-67
2021/10/08 10:52:01;;;;;;;15.73;8.82;;;17.60;61.40;;;;;;5021798;28;20160;-67
2021/10/08 10:54:37;;;;;;;15.38;8.90;;;17.70;61.10;;;;;;5018468;28;20030;-67
2021/10/08 10:57:29;;;;;;;18.38;8.75;;;17.70;61.50;;;;;;5007280;28;20044;-67
2021/10/08 11:00:34;;;;;;;17.75;7.25;;;17.80;61.60;;;;;;5027302;28;20076;-67
2021/10/08 11:03:29;;;;;;;19.73;8.27;;;17.80;59.30;;;;;;5022444;28;20080;-66
2021/10/08 11:06:08;;;;;;;21.50;7.32;;;17.70;61.00;;;;;;4991708;28;20145;-65
2021/10/08 11:08:34;;;;;;;17.45;7.72;;;17.80;60.50;;;;;;5019184;28;20033;-66
2021/10/08 11:11:00;;;;;;;17.38;7.13;;;17.70;58.00;;;;;;5021705;28;20030;-66
2021/10/08 11:13:32;;;;;;;18.13;8.18;;;17.70;58.50;;;;;;5023349;28;20028;-66
2021/10/08 11:16:01;;;;;;;12.10;6.97;;;17.80;59.00;;;;;;5022436;28;20072;-66
2021/10/08 11:18:39;;;;;;;10.65;6.97;;;17.80;58.00;;;;;;5014013;28;20040;-65
2021/10/08 11:21:05;;;;;;;16.33;7.38;;;17.90;58.70;;;;;;5012196;28;20057;-66
2021/10/08 11:23:36;;;;;;;17.27;6.82;;;17.80;58.30;;;;;;5014470;28;20045;-66
2021/10/08 11:26:15;;;;;;;12.40;6.55;;;17.90;58.10;;;;;;5018298;28;20025;-65
2021/10/08 11:28:46;;;;;;;13.73;6.60;;;17.90;57.40;;;;;;5022833;28;20036;-66
2021/10/08 11:31:17;;;;;;;16.10;6.63;;;17.80;55.70;;;;;;5004880;28;20072;-66
2021/10/08 11:33:47;;;;;;;13.07;6.75;;;17.90;57.20;;;;;;5015329;28;20033;-66
2021/10/08 11:36:25;;;;;;;12.13;6.10;;;17.80;56.80;;;;;;5015664;28;20058;-66
2021/10/08 11:39:07;;;;;;;11.10;5.80;;;17.80;55.70;;;;;;5013517;28;20029;-66
2021/10/08 11:41:33;;;;;;;14.25;6.93;;;17.80;55.90;;;;;;5020115;28;20029;-66
2021/10/08 11:44:07;;;;;;;13.43;5.55;;;17.90;56.70;;;;;;5015866;28;20497;-66
2021/10/08 11:46:55;;;;;;;12.45;6.35;;;17.80;56.00;;;;;;5006387;28;20084;-66
2021/10/08 11:51:59;;;;;;;10.45;5.93;;;17.90;55.40;;;;;;5015331;28;20050;-66
2021/10/08 11:54:25;;;;;;;15.85;6.45;;;18.00;56.20;;;;;;5007853;28;20037;-65
2021/10/08 11:57:17;;;;;;;21.67;7.13;;;18.00;57.40;;;;;;5018337;28;20113;-66
2021/10/08 11:59:58;;;;;;;11.38;6.20;;;18.10;56.70;;;;;;4996781;28;20149;-66
2021/10/08 12:02:24;;;;;;;11.98;6.80;;;18.10;57.80;;;;;;4999313;28;20051;-65
2021/10/08 12:04:58;;;;;;;17.20;6.88;;;18.20;56.00;;;;;;5022456;28;20505;-66
2021/10/08 12:07:24;;;;;;;10.70;6.22;;;18.20;53.80;;;;;;5004024;28;20068;-66
2021/10/08 12:10:13;;;;;;;15.45;6.97;;;18.00;54.20;;;;;;5024710;28;20044;-65
2021/10/08 12:12:50;;;;;;;12.18;6.30;;;18.00;56.50;;;;;;5012809;28;20099;-66
2021/10/08 12:15:24;;;;;;;12.18;6.40;;;18.10;55.90;;;;;;5016311;28;20026;-65
2021/10/08 12:17:55;;;;;;;17.35;7.03;;;18.10;55.50;;;;;;5004694;28;20045;-66
2021/10/08 12:20:26;;;;;;;14.02;6.32;;;18.20;54.90;;;;;;5011624;28;21155;-66
2021/10/08 12:23:20;;;;;;;13.77;6.88;;;18.00;55.60;;;;;;4996896;28;20095;-66
2021/10/08 12:25:49;;;;;;;15.90;7.15;;;18.10;56.90;;;;;;5019878;28;20050;-66
2021/10/08 12:28:17;;;;;;;12.50;6.57;;;18.10;56.50;;;;;;5012878;28;20037;-66
2021/10/08 12:31:04;;;;;;;15.25;6.82;;;18.00;55.30;;;;;;5016511;28;20059;-66
2021/10/08 12:33:31;;;;;;;11.55;6.05;;;18.10;56.00;;;;;;5009331;28;20061;-66
2021/10/08 12:36:15;;;;;;;15.00;7.25;;;18.20;56.50;;;;;;5017679;28;20029;-66
2021/10/08 12:39:05;;;;;;;13.55;6.40;;;18.20;55.70;;;;;;5010043;28;20038;-65
2021/10/08 12:41:46;;;;;;;11.68;6.50;;;18.20;57.30;;;;;;5016241;28;20046;-65
2021/10/08 12:44:22;;;;;;;16.25;6.80;;;18.00;55.60;;;;;;5016380;28;20125;-66
2021/10/08 12:47:13;;;;;;;12.10;6.57;;;18.00;56.80;;;;;;5010359;28;20100;-66
2021/10/08 12:49:58;;;;;;;12.73;6.47;;;18.10;56.60;;;;;;5017128;28;20110;-65
2021/10/08 12:52:56;;;;;;;18.55;6.05;;;18.10;56.40;;;;;;5009893;28;20686;-66